Tiempo atmosférico en la estación meteorológica de Puerto De Leitariegos, Asturias (1550 m.)



Fecha
DESCASC
Temp. máxima en grados centígrados (hora)
DESCASC
Temp. mínima en grados centígrados (hora)
DESCASC
Temp. media en grados centígrados
DESCASC
Racha de viento máxima en m/sg (hora)
DESCASC
Velocidad máxima media en intervalos de 10 minutos(hora)
DESCASC
Precipitaciones diarias en mm
DESCASC
Precipitaciones de 00:00 a 06:00 en mm
DESCASC
Precipitaciones de 06:00 a 12:00 en mm
DESCASC
Precipitaciones de 12:00 a 18:00 en mm
DESCASC
Precipitaciones de 18:00 a 24:00 en mm
DESCASC
19-01-2020 0.3 (04:10) -3.7 (21:20) -1.7 36.94 (20:50) 15.28 (21:00) 0.8 0.6 0.2 0 0
18-01-2020 4.2 (14:40) -1.6 (02:40) 1.3 19.72 (11:50) 8.61 (15:50) 7.4 0 0 5.4 2
17-01-2020 1.9 (00:00) -1.8 (10:20) 0.1 17.78 (08:50) 8.33 (03:30) 4.2 3.8 0.4 0 0
16-01-2020 5.9 (05:30) 1.6 (00:00) 3.8 27.22 (13:00) 12.22 (14:40) 8.4 0.2 2.2 1.6 4.4
15-01-2020 4.5 (15:00) 0.8 (00:00) 2.7 28.06 (04:40) 12.78 (05:20) 6.6 1.4 5.2 0 0
14-01-2020 3.3 (21:10) 1.4 (00:00) 2.3 30.83 (12:30) 11.94 (12:30) 0.2 0 0 0 0.2
13-01-2020 5.2 (12:40) 0.1 (00:00) 2.6 25.28 (23:40) 11.11 (23:59) 0 0 0 0 0
12-01-2020 8.7 (12:20) 0.3 (00:00) 4.5 6.39 (07:40) 4.72 (07:30) 0 0 0 0 0
11-01-2020 9.9 (15:00) -3 (-00:0) 3.4 4.72 (09:20) 3.61 (09:20) 0 0 0 0 0
10-01-2020 0.5 (15:00) -2 (-00:0) -0.8 17.78 (06:20) 10.83 (02:00) 0.2 0 0.2 0 0
09-01-2020 7.7 (13:10) -1 (-00:0) 3.3 21.94 (14:40) 8.61 (14:40) 2.4 0 0 2.4 0
08-01-2020 12.3 (12:40) 3.8 (00:00) 8.1 4.44 (15:10) 3.61 (15:20) 0 0 0 0 0
07-01-2020 11.5 (13:00) 2.2 (00:00) 6.9 4.44 (02:20) 3.33 (15:30) 0 0 0 0 0
06-01-2020 10.2 (11:40) 2 (00:00) 6.1 4.72 (18:00) 3.33 (14:10) 0 0 0 0 0
05-01-2020 11.1 (13:30) 4.9 (00:00) 8 10.56 (12:50) 7.5 (12:50) 0 0 0 0 0
04-01-2020 8.2 (14:50) -1.7 (-00:0) 3.2 5 (15:20) 3.61 (15:30) 0 0 0 0 0
03-01-2020 5.6 (15:00) -0.8 (-00:0) 2.4 6.67 (14:00) 3.89 (15:10) 0 0 0 0 0
02-01-2020 10.9 (14:40) 3.7 (00:00) 7.3 6.67 (13:00) 5.28 (13:00) 0 0 0 0 0
01-01-2020 14.7 (13:40) 3.6 (00:00) 9.1 5.83 (04:20) 4.17 (04:20) 0 0 0 0 0
31-12-2019 13.2 (12:10) 3.8 (00:00) 8.5 4.44 (22:50) 3.06 (14:40) 0 0 0 0 0
30-12-2019 15.8 (12:50) 5.4 (00:00) 10.6 6.39 (16:20) 5 (16:40) 0 0 0 0 0
29-12-2019 14.9 (12:40) 5.5 (00:00) 10.2 5 (15:40) 3.33 (15:20) 0 0 0 0 0
28-12-2019 13.3 (14:00) 5.5 (00:00) 9.4 5.83 (07:50) 3.61 (00:20) 0 0 0 0 0
27-12-2019 10.8 (14:10) 1 (00:00) 5.9 6.67 (13:30) 4.72 (16:40) 0 0 0 0 0
26-12-2019 8.9 (14:50) -0.9 (-00:0) 4 13.61 (03:00) 6.94 (03:00) 0 0 0 0 0
25-12-2019 10 (16:00) 3 (00:00) 6.5 22.22 (18:10) 10.83 (16:20) 0 0 0 0 0
24-12-2019 9.3 (18:40) 4.8 (00:00) 7.1 23.33 (01:50) 8.33 (01:20) 0 0 0 0 0
23-12-2019 7.8 (17:20) 0.4 (00:00) 4.1 21.67 (19:50) 8.06 (23:59) 0 0 0 0 0

Gráficas

Temp. máximas Temp. mínimas Temp. medias Precipitaciones Rachas de viento máximas Velocidades máximas media en intervalos de 10 minutos

Datos horarios

Fecha y hora oficial Temperatura (ºC) Velocidad del viento (km/h) Dirección del viento Racha (km/h) Dirección de racha Precipitación (mm) Presión (hPa) Tendencia (hPa) Humedad (%)
2020-01-21 23:00:00 -1.2 17 Nordeste 29 Norte 0 851.9 0.6 79
2020-01-21 22:00:00 -3 15 Noroeste 20 Noroeste 0 851.6 0.5 93
2020-01-21 21:00:00 -2.5 17 Noroeste 22 Norte 0 851.5 0.5 94
2020-01-21 20:00:00 -2.3 14 Noroeste 21 Noroeste 0 851.3 0.2 94
2020-01-21 19:00:00 -1.7 10 Noroeste 31 Noroeste 0 851.1 -0.3 87
2020-01-21 18:00:00 0.4 10 Nordeste 32 Este 0 851 -0.8 78
2020-01-21 17:00:00 -1 14 Oeste 25 Oeste 0 851.1 -1.4 86
2020-01-21 16:00:00 0 10 Sudeste 31 Norte 0 851.4 -1.8 76
2020-01-21 15:00:00 0.1 11 Este 41 Sudeste 0 851.8 -1.7 74
2020-01-21 14:00:00 0 10 Sudoeste 44 Sur 0 852.5 -1.6 75
2020-01-21 13:00:00 0.1 9 Norte 50 Sudeste 0 853.2 -0.8 73
2020-01-21 12:00:00 0.2 14 Nordeste 49 Norte 0 853.5 -0.5 72
2020-01-21 11:00:00 -0.5 14 Sudeste 64 Sudeste 0 854.1 -0.1 72
2020-01-21 10:00:00 -1.4 17 Sudoeste 42 Sur 0 854 -0.5 77
2020-01-21 09:00:00 -1.8 18 Nordeste 33 Este 0 854 -0.3 78
2020-01-21 08:00:00 -1.7 8 Este 25 Este 0 854.2 -0.2 78
2020-01-21 07:00:00 -2.3 11 Norte 31 Norte 0 854.5 -0.5 82
2020-01-21 06:00:00 -4.5 7 Noroeste 22 Sudeste 0 854.3 -0.6 87
2020-01-21 05:00:00 -3 8 Este 36 Sudeste 0 854.4 -0.9 83
2020-01-21 04:00:00 -3.1 9 Nordeste 27 Sudeste 0 855 -0.6 83
2020-01-21 03:00:00 -3 6 Noroeste 21 Sudeste 0 854.9 -0.7 81
2020-01-21 02:00:00 -3.3 9 Este 19 Este 0 855.3 -0.6 80
2020-01-21 01:00:00 -3.7 7 Nordeste 23 Este -- 855.6 -0.2 82
2020-01-21 00:00:00 -2.4 9 Este 33 Sudeste -- 855.6 -0.4 71
2020-01-20 23:00:00 -2.6 10 Este 40 Este -- 855.9 0.1 73
2020-01-20 22:00:00 -2.4 10 Sudeste 42 Este -- 855.8 0.5 71
2020-01-20 21:00:00 -3.3 11 Norte 46 Sur -- 856 0.9 75
2020-01-20 20:00:00 -3.4 9 Sudeste 46 Este -- 855.8 0.5 70
2020-01-20 19:00:00 -3.9 14 Sur 37 Sudeste -- 855.3 0.3 68
2020-01-20 18:00:00 -3.5 12 Sur 30 Este -- 855.1 -0.3 61
2020-01-20 17:00:00 -3.1 11 Sur 45 Este -- 855.3 -0.6 67
2020-01-20 16:00:00 -3.2 20 Sudeste 53 Sudeste -- 855 -0.8 69
2020-01-20 15:00:00 -2.9 10 Oeste 57 Sudeste -- 855.4 -2 73
2020-01-20 14:00:00 -2.7 22 Sur 84 Sur -- 855.9 -1.1 67
2020-01-20 13:00:00 -3.3 19 Sudoeste 87 Sudeste -- 855.8 -0.9 66
2020-01-20 12:00:00 -3.2 19 Sur 72 Sudeste -- 857.4 1.4 65
2020-01-20 11:00:00 -3.8 20 Sudoeste 53 Sudeste -- 857 1.5 73
2020-01-20 10:00:00 -4.1 20 Sur 57 Este 0 856.7 1.4 76
2020-01-20 09:00:00 -4.3 18 Sur 77 Sudeste 0 856 1.2 73
2020-01-20 08:00:00 -4.1 20 Sudeste 69 Oeste 0 855.5 -0.3 73
2020-01-20 07:00:00 -4 22 Sudoeste 64 Sudeste 0 855.3 -1.3 76
2020-01-20 06:00:00 -4 20 Sudoeste 64 Sudoeste 0 854.8 -2.1 79
2020-01-20 05:00:00 -4.1 15 Sudoeste 68 Noroeste 0 855.8 -1.6 78
2020-01-20 04:00:00 -3.8 20 Oeste 50 Noroeste 0 856.6 -1.4 81
2020-01-20 03:00:00 -3.8 22 Sudoeste 69 Sudeste 0 856.9 -0.3 73
2020-01-20 02:00:00 -3.8 22 Sudoeste 67 Noroeste 0 857.4 0.4 71
2020-01-20 01:00:00 -3.8 20 Oeste 77 Noroeste 0 858 0.8 72
2020-01-20 00:00:00 -3.6 33 Oeste 93 Oeste 0 857.2 -0.1 81
2020-01-19 23:00:00 -3.2 33 Oeste 119 Noroeste 0 857 0 70
2020-01-19 22:00:00 -3.5 50 Noroeste 118 Noroeste 0 857.2 -0.1 70
2020-01-19 21:00:00 -3.5 55 Noroeste 133 Noroeste 0 857.3 0.4 69
2020-01-19 20:00:00 -3.4 51 Noroeste 111 Noroeste 0 857 0 64
2020-01-19 19:00:00 -3.4 37 Noroeste 104 Noroeste 0 857.3 0.3 68
2020-01-19 18:00:00 -3 35 Noroeste 93 Noroeste 0 856.9 -0.7 62
2020-01-19 17:00:00 -2.8 36 Noroeste 86 Noroeste 0 857 -0.1 67
2020-01-19 16:00:00 -2.1 34 Noroeste 93 Noroeste 0 857 -1.7 75
2020-01-19 15:00:00 -1.7 33 Noroeste 84 Noroeste 0 857.6 -1.1 69
2020-01-19 14:00:00 -1.8 44 Noroeste 105 Noroeste 0 857.1 -1.1 62
2020-01-19 13:00:00 -1.7 41 Noroeste 78 Noroeste 0 858.7 0.8 74
2020-01-19 12:00:00 -1.5 20 Sudoeste 63 Sudeste 0 858.7 1.4 74
2020-01-19 11:00:00 -2.1 34 Oeste 89 Noroeste 0 858.2 2.1 76
2020-01-19 10:00:00 -2 31 Noroeste 71 Noroeste 0 857.9 2.5 73
2020-01-19 09:00:00 -2.1 20 Nordeste 84 Norte 0.2 857.3 3.3 85
2020-01-19 08:00:00 -2.3 19 Oeste 78 Noroeste 0 856.1 3.1 80
2020-01-19 07:00:00 -1.2 17 Norte 47 Noroeste 0 855.4 3.2 92
2020-01-19 06:00:00 -0.5 20 Noroeste 62 Noroeste 0 854 2.9 92
2020-01-19 05:00:00 0.2 37 Noroeste 64 Noroeste 0 853 2.5 95
2020-01-19 04:00:00 0.2 34 Noroeste 59 Noroeste 0.2 852.2 2.2 96
2020-01-19 03:00:00 0.1 31 Norte 47 Norte 0.2 851.1 1.8 96
2020-01-19 02:00:00 -0.1 27 Noroeste 41 Noroeste 0.2 850.5 1.4 96
2020-01-19 01:00:00 -0.2 29 Noroeste 41 Noroeste 0 850 1.3 96
2020-01-19 00:00:00 -0.4 27 Noroeste 41 Noroeste 0.2 849.3 1 96
2020-01-18 23:00:00 -0.5 17 Norte 24 Noroeste 0.2 849.1 1 95
2020-01-18 22:00:00 -0.7 13 Norte 23 Noroeste 0.2 848.7 0.9 95
2020-01-18 21:00:00 -0.6 17 Noroeste 33 Noroeste 0.6 848.3 0.8 95
2020-01-18 20:00:00 -0.5 19 Noroeste 36 Noroeste 0.4 848.1 0.2 95
2020-01-18 19:00:00 -0.4 20 Noroeste 35 Noroeste 0.4 847.8 0.5 94
2020-01-18 18:00:00 0.2 11 Noroeste 35 Noroeste 0 847.5 1.1 87
2020-01-18 17:00:00 0.5 29 Noroeste 64 Noroeste 0 847.9 1.3 79
2020-01-18 16:00:00 1.6 28 Noroeste 58 Norte 2.6 847.3 -0.8 89
2020-01-18 15:00:00 2.4 20 Noroeste 57 Noroeste 2.8 846.4 -2.4 88
2020-01-18 14:00:00 3.7 21 Noroeste 65 Sudeste 0 846.6 -3.2 85
2020-01-18 13:00:00 3.8 10 Nordeste 59 Sur 0 848.1 -2.1 88
2020-01-18 12:00:00 3 25 Sudeste 71 Sudeste 0 848.8 -1.9 91
2020-01-18 11:00:00 2.6 27 Sudeste 48 Sur 0 849.8 -1.5 92
2020-01-18 10:00:00 1.1 23 Sudeste 50 Sudeste 0 850.2 -1.9 95
2020-01-18 09:00:00 -0.8 18 Sudeste 33 Sudeste 0 850.7 -1.9 95
2020-01-18 08:00:00 -1.1 23 Sudeste 34 Sudeste 0 851.3 -1.8 94
2020-01-18 07:00:00 -0.8 14 Sudeste 24 Sur 0 852.1 -1.8 85
2020-01-18 06:00:00 -0.8 17 Sudeste 27 Sur 0 852.6 -1.2 83
2020-01-18 05:00:00 -0.9 18 Sur 28 Sudeste 0 853.1 -1.9 80
2020-01-18 04:00:00 -1.1 9 Sudeste 36 Sudeste 0 853.9 -1.8 80
2020-01-18 03:00:00 -1.3 12 Sudeste 29 Sudeste 0 853.8 -2.3 85
2020-01-18 02:00:00 -1.4 10 Sudeste 19 Este 0 855 -1.6 87
2020-01-18 01:00:00 -1.5 10 Sudeste 13 Sudeste 0 855.7 -1.1 91
2020-01-18 00:00:00 -1.3 13 Sudeste 21 Sudeste 0 856.1 -1 89
2020-01-17 23:00:00 -1.2 13 Sudeste 19 Sur 0 856.6 -0.5 89
2020-01-17 22:00:00 -1.4 17 Sudeste 22 Sudeste 0 856.8 0.2 90
2020-01-17 21:00:00 -1.3 13 Sudeste 18 Sudeste 0 857.1 0.4 90
2020-01-17 20:00:00 -1.3 10 Sudeste 18 Sudeste 0 857.1 0.5 88
2020-01-17 19:00:00 -1.3 7 Sudeste 13 Sudeste 0 856.6 0.3 84
2020-01-17 18:00:00 -0.7 8 Sur 20 Noroeste 0 856.7 0.6 77
2020-01-17 17:00:00 -0.5 12 Noroeste 35 Oeste 0 856.6 0.4 80
2020-01-17 16:00:00 -0.5 13 Noroeste 36 Noroeste 0 856.3 -0.2 76
2020-01-17 15:00:00 -0.6 15 Noroeste 27 Noroeste 0 856.1 -0.2 79
2020-01-17 14:00:00 -0.5 8 Noroeste 20 Norte 0 856.2 0.8 79
2020-01-17 13:00:00 -0.3 12 Noroeste 37 Noroeste 0 856.5 2 78
2020-01-17 12:00:00 -1.5 12 Noroeste 36 Noroeste 0 856.3 2.7 83
2020-01-17 11:00:00 -1.6 16 Noroeste 38 Oeste 0 855.4 2.6 84
2020-01-17 10:00:00 -1.6 21 Noroeste 48 Noroeste 0 854.5 2.6 90
2020-01-17 09:00:00 -1.1 20 Noroeste 64 Noroeste 0 853.6 2.1 86
2020-01-17 08:00:00 -1.1 16 Noroeste 46 Noroeste 0.4 852.8 2.4 92
2020-01-17 07:00:00 -0.7 15 Noroeste 41 Norte 0 851.9 1.4 90
2020-01-17 06:00:00 -0.4 20 Noroeste 47 Noroeste 0.6 851.5 1.3 90
2020-01-17 05:00:00 -0.1 26 Norte 63 Norte 1 850.4 0.9 90
2020-01-17 04:00:00 0.6 17 Noroeste 56 Norte 0.2 850.5 1.2 86
2020-01-17 03:00:00 0.1 14 Noroeste 37 Noroeste 0.8 850.2 1.2 94
2020-01-17 02:00:00 0.6 16 Noroeste 44 Noroeste 0.6 849.5 0.7 91
2020-01-17 01:00:00 0.9 8 Norte 44 Oeste 0.6 849.3 1 89
2020-01-17 00:00:00 1.9 16 Noroeste 47 Noroeste 0 849 1.4 79
2020-01-16 23:00:00 1.8 6 Nordeste 24 Norte 0.8 848.8 2 88
2020-01-16 22:00:00 3 15 Norte 48 Sudeste 0.8 848.3 1.8 84
2020-01-16 21:00:00 3.2 29 Sudeste 82 Sudeste 0.8 847.6 1.4 87
2020-01-16 20:00:00 3.4 32 Sudeste 60 Sudeste 1 846.8 1.1 88
2020-01-16 19:00:00 3.6 21 Sudeste 62 Sudeste 1 846.5 0.4 87
2020-01-16 18:00:00 3.4 25 Sudeste 56 Sudeste 0.8 846.2 0.2 89
2020-01-16 17:00:00 3.6 26 Sudeste 60 Sur 0.8 845.7 -0.9 89
2020-01-16 16:00:00 4.6 36 Sur 92 Sur 0 846.1 -1.1 81
2020-01-16 15:00:00 4.8 42 Sudeste 87 Sur 0 846 -2 82
2020-01-16 14:00:00 5.5 41 Sudeste 89 Sudeste 0 846.6 -1.5 80
2020-01-16 13:00:00 5.4 35 Sudeste 98 Sudeste 0 847.2 -0.7 81
2020-01-16 12:00:00 5.2 28 Sudeste 88 Sudeste 0 848 0.6 87
2020-01-16 11:00:00 4.6 31 Sudeste 85 Sudeste 0.2 848.1 0.3 88
2020-01-16 10:00:00 5.1 39 Sudeste 94 Sudeste 0 847.9 -0.2 82
2020-01-16 09:00:00 5.2 33 Sudeste 81 Sudeste 0 847.4 -0.8 85
2020-01-16 08:00:00 5.2 32 Sudeste 86 Sur 0 847.8 -0.9 88
2020-01-16 07:00:00 4.9 22 Sudeste 78 Sudeste 2 848.1 -1.1 91
2020-01-16 06:00:00 5.1 23 Sudeste 49 Sudeste 0.2 848.2 -1.6 87
2020-01-16 05:00:00 5.7 19 Sudeste 60 Sudeste 0 848.7 -1.3 75
2020-01-16 04:00:00 5.2 24 Sudeste 47 Sudeste 0 849.2 -1.1 78
2020-01-16 03:00:00 5.4 17 Sudeste 71 Sur 0 849.8 -0.5 76
2020-01-16 02:00:00 5.5 27 Sudeste 70 Sudeste 0 850 -0.3 80
2020-01-16 01:00:00 3.7 10 Sudeste 21 Sur 0 850.3 -0.5 90
2020-01-16 00:00:00 3.2 14 Sudeste 32 Sur 0 850.3 -0.2 86
2020-01-15 23:00:00 3.7 17 Sur 30 Este 0 850.3 -0.1 82
2020-01-15 22:00:00 4.4 16 Sudeste 30 Sudeste 0 850.8 0.7 78
2020-01-15 21:00:00 2.3 17 Sur 33 Sudeste 0 850.5 0.7 84
2020-01-15 20:00:00 2.5 13 Sudeste 31 Sur 0 850.4 1 85
2020-01-15 19:00:00 3 14 Sudeste 32 Sur 0 850.1 1.5 83
2020-01-15 18:00:00 3.4 13 Sudeste 32 Sudeste 0 849.8 1.6 80
2020-01-15 17:00:00 3.9 14 Sudeste 49 Sudeste 0 849.4 1.4 77
2020-01-15 16:00:00 4 21 Sudeste 51 Sudeste 0 848.6 0.5 77
2020-01-15 15:00:00 4.5 21 Sudeste 42 Sudeste 0 848.2 0.5 79
2020-01-15 14:00:00 4.1 23 Sudeste 40 Sudeste 0 848 1.1 84
2020-01-15 13:00:00 3.4 19 Sudeste 34 Sudeste 0 848.1 1.8 90
2020-01-15 12:00:00 2.7 18 Sudeste 33 Sudeste 0 847.7 2.4 92
2020-01-15 11:00:00 1.6 12 Sudeste 27 Sudeste 0 846.9 3.1 94
2020-01-15 10:00:00 0.9 8 Sur 33 Noroeste 2.6 846.3 3.5 92
2020-01-15 09:00:00 3 15 Noroeste 50 Sur 1 845.3 3.8 86
2020-01-15 08:00:00 3.3 28 Sudeste 71 Sur 0.8 843.8 2.4 88
2020-01-15 07:00:00 3.5 26 Sudeste 72 Sudeste 0.8 842.8 1.5 88
2020-01-15 06:00:00 4.1 37 Sudeste 98 Sudeste 0 841.5 -0.1 85
2020-01-15 05:00:00 3.6 41 Sudeste 101 Sur 0.2 841.4 -0.8 86
2020-01-15 04:00:00 3.6 39 Sudeste 81 Sudeste 1.2 841.3 -1.2 88
2020-01-15 03:00:00 3.3 32 Sudeste 93 Sur 0 841.6 -1.2 89
2020-01-15 02:00:00 3.2 29 Sudeste 68 Sudeste 0 842.2 -1.3 89
2020-01-15 01:00:00 3.1 28 Sudeste 61 Sudeste 0 842.5 -0.8 87
2020-01-15 00:00:00 3 24 Sudeste 81 Sudeste 0 842.8 0 89
2020-01-14 23:00:00 2.6 35 Sudeste 66 Sudeste 0.2 843.5 -0.4 89
2020-01-14 22:00:00 2.7 35 Sudeste 85 Sudeste 0 843.3 -0.5 86
2020-01-14 21:00:00 3.2 37 Sudeste 86 Sudeste 0 842.8 -1.2 80
2020-01-14 20:00:00 2.9 24 Sur 79 Sur 0 843.9 0.2 82
2020-01-14 19:00:00 2.8 26 Sudeste 64 Sur 0 843.8 0 85
2020-01-14 18:00:00 2.8 24 Sudeste 62 Sudeste 0 844 -0.4 88
2020-01-14 17:00:00 3 35 Sudeste 81 Sudeste 0 843.7 -1.3 85
2020-01-14 16:00:00 3.2 29 Sudeste 64 Sudeste 0 843.8 -1.9 81
2020-01-14 15:00:00 2.5 27 Sudeste 72 Sur 0 844.4 -1.5 84
2020-01-14 14:00:00 2.7 32 Sudeste 82 Sudeste 0 845 -0.7 78
2020-01-14 13:00:00 2.4 36 Sudeste 111 Sur 0 845.7 0.3 81
2020-01-14 12:00:00 2.5 29 Sur 68 Sudoeste 0 845.9 0.3 82
2020-01-14 11:00:00 1.8 33 Sudeste 75 Sudeste 0 845.7 0.3 87
2020-01-14 10:00:00 1.6 26 Sudeste 54 Sudeste 0 845.4 0 91
2020-01-14 09:00:00 1.8 19 Sudeste 45 Sudeste 0 845.6 0.2 95
2020-01-14 08:00:00 1.8 22 Sudeste 45 Sudeste 0 845.4 -0.2 95
2020-01-14 07:00:00 1.7 17 Sur 59 Sur 0 845.4 -0.6 95
2020-01-14 06:00:00 2 28 Sudeste 59 Sudeste 0 845.4 -0.4 90
2020-01-14 05:00:00 1.9 31 Sudeste 61 Sudeste 0 845.6 -0.4 90
2020-01-14 04:00:00 1.8 27 Sudeste 72 Sudeste 0 846 -0.4 90
2020-01-14 03:00:00 2 32 Sudeste 80 Sur 0 845.8 -0.9 89
2020-01-14 02:00:00 2 36 Sudeste 86 Sur 0 846 -0.8 87
2020-01-14 01:00:00 2 40 Sudeste 85 Sudeste 0 846.4 -0.6 85
2020-01-14 00:00:00 1.5 40 Sudeste 91 Sur 0 846.7 -0.7 86
2020-01-13 23:00:00 1.6 33 Sudeste 68 Sudeste 0 846.8 -0.7 85
2020-01-13 22:00:00 1.5 19 Sudeste 42 Sudeste 0 847 0.2 81
2020-01-13 21:00:00 1.7 20 Sudeste 46 Sudeste 0 847.4 0.5 75
2020-01-13 20:00:00 2.1 26 Sudeste 68 Sudeste 0 847.5 0.4 68
2020-01-13 19:00:00 2.5 31 Sudeste 60 Sudeste 0 846.8 -1.1 63
2020-01-13 18:00:00 3 28 Sudeste 60 Sur 0 846.9 -1.1 54
2020-01-13 17:00:00 3.4 30 Sudeste 61 Sudeste 0 847.1 -1.3 46
2020-01-13 16:00:00 4.1 21 Sudeste 55 Sudeste 0 847.9 -1.6 40
2020-01-13 15:00:00 5.2 26 Sudeste 58 Sudeste 0 848 -2.3 35
2020-01-13 14:00:00 5.1 23 Sudeste 56 Sudeste 0 848.4 -2.1 53
2020-01-13 13:00:00 4.8 24 Sudeste 65 Sur 0 849.5 -1.4 50
2020-01-13 12:00:00 4.5 20 Sudeste 63 Sudeste 0 850.3 -0.5 57
2020-01-13 11:00:00 3 27 Sudeste 48 Sudeste 0 850.5 -0.1 64
2020-01-13 10:00:00 2.1 21 Sudeste 40 Sudeste 0 850.9 -0.3 76
2020-01-13 09:00:00 1.9 18 Sudeste 34 Sudeste 0 850.8 -1.1 84
2020-01-13 08:00:00 0.8 14 Sudeste 27 Sudeste 0 850.6 -1.9 72
2020-01-13 07:00:00 0.7 9 Sudeste 14 Sudeste 0 851.2 -1.8 71
2020-01-13 06:00:00 1.6 4 Este 13 Sudeste 0 851.9 -1.8 71
2020-01-13 05:00:00 1.3 4 Sudeste 15 Sudeste 0 852.5 -1.9 64
2020-01-13 04:00:00 0.4 9 Sudeste 15 Sudeste 0 853 -2.2 66
2020-01-13 03:00:00 1.5 4 Sudeste 8 Sudeste 0 853.7 -2.1 58
2020-01-13 02:00:00 1 5 Sudeste 9 Sudeste 0 854.4 -1.4 60
2020-01-13 01:00:00 0.6 6 Sudeste 9 Sudeste 0 855.2 -0.9 60
2020-01-13 00:00:00 0.6 5 Sudeste 11 Sudeste 0 855.8 -0.6 60
2020-01-12 23:00:00 1.9 5 Sur 7 Sudeste 0 855.8 -0.9 59
2020-01-12 22:00:00 1.2 2 Norte 6 Sur 0 856.1 -0.5 63
2020-01-12 21:00:00 1.6 3 Sur 9 Sudoeste 0 856.4 -0.3 73
2020-01-12 20:00:00 1.6 2 Norte 7 Noroeste 0 856.7 0 75
2020-01-12 19:00:00 2.3 3 Noroeste 13 Oeste 0 856.6 -0.2 63
2020-01-12 18:00:00 3.4 8 Noroeste 14 Noroeste 0 856.7 -0.3 47
2020-01-12 17:00:00 3.9 10 Noroeste 15 Noroeste 0 856.7 -0.6 45
2020-01-12 16:00:00 4.6 12 Oeste 21 Noroeste 0 856.8 -1.2 36
2020-01-12 15:00:00 6 12 Noroeste 14 Noroeste 0 857 -1.7 33
2020-01-12 14:00:00 6.5 12 Noroeste 14 Noroeste 0 857.3 -1.3 31
2020-01-12 13:00:00 7.3 5 Norte 9 Norte 0 858 -0.3 29
2020-01-12 12:00:00 7.2 6 Sudeste 12 Sudeste 0 858.7 0.8 25
2020-01-12 11:00:00 5.4 2 Oeste 10 Norte 0 858.6 0.8 21
2020-01-12 10:00:00 2.2 3 Noroeste 18 Noroeste 0 858.3 0.7 28
2020-01-12 09:00:00 1.2 13 Noroeste 17 Noroeste 0 857.9 0.3 25
2020-01-12 08:00:00 1.5 12 Noroeste 23 Noroeste 0 857.8 0.2 27
2020-01-12 07:00:00 1.8 12 Noroeste 17 Noroeste 0 857.6 -0.4 25
2020-01-12 06:00:00 1.5 8 Noroeste 17 Noroeste 0 857.6 -0.3 28
2020-01-12 05:00:00 1.4 3 Noroeste 11 Noroeste 0 857.6 -0.3 25
2020-01-12 04:00:00 2.6 8 Noroeste 12 Noroeste 0 858 -0.3 21
2020-01-12 03:00:00 1.7 0 Calma 6 Oeste 0 857.9 -0.4 27
2020-01-12 02:00:00 2.4 2 Noroeste 8 Noroeste 0 857.9 -0.3 27
2020-01-12 01:00:00 1.1 2 Noroeste 7 Nordeste 0 858.3 0 37
2020-01-12 00:00:00 0.8 2 Noroeste 5 Sudoeste 0 858.3 0.1 43
2020-01-11 23:00:00 1.8 2 Noroeste 5 Sudoeste 0 858.2 0.1 42
2020-01-11 22:00:00 2 0 Calma 10 Noroeste 0 858.3 0.3 42
2020-01-11 21:00:00 4 8 Noroeste 16 Noroeste 0 858.2 0.6 36
2020-01-11 20:00:00 3.3 2 Noroeste 12 Noroeste 0 858.1 0.6 51
2020-01-11 19:00:00 3.9 5 Noroeste 10 Noroeste 0 858 0.6 53
2020-01-11 18:00:00 5 4 Noroeste 16 Noroeste 0 857.6 0.2 47
2020-01-11 17:00:00 6.3 7 Noroeste 13 Noroeste 0 857.5 -0.3 47
2020-01-11 16:00:00 7.5 2 Noroeste 8 Sur 0 857.4 -1.1 41
2020-01-11 15:00:00 9.9 4 Sur 7 Sudeste 0 857.4 -1.6 34
2020-01-11 14:00:00 8.5 4 Sudeste 6 Sur 0 857.8 -1.1 41
2020-01-11 13:00:00 8.6 0 Calma 9 Sudeste 0 858.5 -0.1 35
2020-01-11 12:00:00 6.9 6 Sudeste 9 Sudeste 0 859 0.6 39
2020-01-11 11:00:00 5.6 -- -- -- -- 0 858.9 0.5 29
2020-01-11 10:00:00 2.9 3 Norte 17 Noroeste 0 858.6 0.2 33
2020-01-11 09:00:00 0 8 Noroeste 12 Noroeste 0 858.4 0.1 36
2020-01-11 08:00:00 -1.9 0 Calma 8 Sudeste 0 858.4 0.1 55
2020-01-11 07:00:00 -2 2 Sudeste 12 Noroeste 0 858.4 -0.1 67
2020-01-11 06:00:00 -1.9 2 Norte 15 Noroeste 0 858.3 -0.2 61
2020-01-11 05:00:00 -1.5 9 Noroeste 13 Noroeste 0 858.3 -0.4 57
2020-01-11 04:00:00 -2 3 Sudeste 9 Sudeste 0 858.5 -0.6 77
2020-01-11 03:00:00 -3 0 Calma 7 Sudeste 0 858.5 -0.7 72
2020-01-11 02:00:00 -2.1 6 Oeste 12 Noroeste 0 858.7 -0.3 73
2020-01-11 01:00:00 -2.5 3 Noroeste 9 Sudeste 0 859.1 0 82
2020-01-11 00:00:00 -1.5 4 Sudeste 10 Sudeste 0 859.2 0.4 92
2020-01-10 23:00:00 -2 9 Sudeste 12 Sudeste 0 859 0.4 91
2020-01-10 22:00:00 -1.6 8 Sudeste 10 Sur 0 859.1 0.9 92
2020-01-10 21:00:00 -1.7 8 Sudeste 15 Sur 0 858.8 0.9 91
2020-01-10 20:00:00 -1.3 10 Sudeste 15 Sur 0 858.6 0.8 89
2020-01-10 19:00:00 -1 9 Sur 13 Sur 0 858.2 0.4 89
2020-01-10 18:00:00 -1.4 3 Noroeste 11 Norte 0 857.9 0.5 91
2020-01-10 17:00:00 -0.4 4 Sudoeste 17 Noroeste 0 857.8 0.1 89
2020-01-10 16:00:00 0.2 9 Oeste 17 Noroeste 0 857.8 -0.1 88
2020-01-10 15:00:00 0.3 8 Noroeste 20 Noroeste 0 857.4 -0.4 89
2020-01-10 14:00:00 0 10 Noroeste 27 Oeste 0 857.7 0.1 92
2020-01-10 13:00:00 -0.1 17 Noroeste 26 Noroeste 0 857.9 1.1 94
2020-01-10 12:00:00 -0.4 12 Norte 30 Noroeste 0 857.8 1.7 95
2020-01-10 11:00:00 -1.1 21 Noroeste 39 Noroeste 0 857.6 1.7 95
2020-01-10 10:00:00 -1.5 23 Noroeste 44 Noroeste 0 856.8 1.2 95
2020-01-10 09:00:00 -1.7 32 Noroeste 48 Oeste 0 856.1 1.2 95
2020-01-10 08:00:00 -1.8 27 Noroeste 50 Noroeste 0.2 855.9 1.3 95
2020-01-10 07:00:00 -1.8 36 Noroeste 64 Noroeste 0 855.6 0.9 95
2020-01-10 06:00:00 -1.8 36 Noroeste 58 Noroeste 0 854.9 0.4 95
2020-01-10 05:00:00 -1.8 32 Noroeste 49 Noroeste 0 854.6 0.4 95
2020-01-10 04:00:00 -1.7 28 Noroeste 49 Noroeste 0 854.7 0.5 94
2020-01-10 03:00:00 -1.7 32 Noroeste 53 Noroeste 0 854.5 0.1 93
2020-01-10 02:00:00 -1.8 39 Noroeste 58 Noroeste 0 854.2 0.1 93
2020-01-10 01:00:00 -1.1 18 Noroeste 44 Noroeste 0 854.2 0.2 95
2020-01-10 00:00:00 -1 30 Noroeste 49 Noroeste 0 854.4 0.8 95
2020-01-09 23:00:00 -1 28 Noroeste 49 Noroeste 0 854.1 1 94
2020-01-09 22:00:00 -0.9 19 Noroeste 39 Noroeste 0 854 1.2 93
2020-01-09 21:00:00 -0.4 14 Noroeste 35 Noroeste 0 853.6 1 86
2020-01-09 20:00:00 -0.3 9 Noroeste 27 Noroeste 0 853.1 0.7 83
2020-01-09 19:00:00 0.4 15 Noroeste 41 Noroeste 0 852.8 1 82
2020-01-09 18:00:00 1 19 Noroeste 51 Noroeste 0 852.6 2.4 88
2020-01-09 17:00:00 1.7 26 Noroeste 57 Oeste 0.8 852.4 1.8 88
2020-01-09 16:00:00 3.5 27 Noroeste 62 Oeste 1.6 851.8 1 83
2020-01-09 15:00:00 6.5 18 Noroeste 79 Noroeste 0 850.2 -2.7 70
2020-01-09 14:00:00 6.4 12 Oeste 57 Noroeste 0 850.6 -2.3 78
2020-01-09 13:00:00 7.3 18 Sudeste 57 Sudeste 0 850.8 -2.3 76
2020-01-09 12:00:00 7.1 9 Sudoeste 27 Sudeste 0 852.9 -0.4 80
2020-01-09 11:00:00 5.8 18 Sudeste 42 Sudeste 0 852.9 -0.9 92
2020-01-09 10:00:00 5.3 9 Sudeste 20 Sudeste 0 853.1 -0.8 90
2020-01-09 09:00:00 4.8 17 Sudeste 22 Sur 0 853.3 -1 89
2020-01-09 08:00:00 4.6 6 Sudeste 17 Sudeste 0 853.8 -0.5 90
2020-01-09 07:00:00 5.9 6 Sudeste 38 Oeste 0 853.9 -1.1 81
2020-01-09 06:00:00 6.1 12 Noroeste 30 Noroeste 0 854.3 -0.8 82
2020-01-09 05:00:00 5.8 4 Sur 19 Noroeste 0 854.3 -1.4 87
2020-01-09 04:00:00 5 5 Sur 14 Sudeste 0 855 -1.1 90
2020-01-09 03:00:00 4.5 6 Sudeste 12 Sudeste 0 855.1 -1.7 88
2020-01-09 02:00:00 5 6 Sudeste 14 Sudeste 0 855.7 -1.3 86
2020-01-09 01:00:00 4.4 4 Sur 15 Sudeste 0 856.1 -0.9 86
2020-01-09 00:00:00 5.2 4 Sur 15 Oeste 0 856.8 -0.3 83
2020-01-08 23:00:00 4.5 4 Noroeste 15 Sudeste 0 857 -0.1 89
2020-01-08 22:00:00 4.6 3 Sur 9 Sudeste 0 857 -0.2 85
2020-01-08 21:00:00 4.2 3 Oeste 8 Oeste 0 857.1 0 81
2020-01-08 20:00:00 5.2 3 Noroeste 6 Noroeste 0 857.1 -0.1 77
2020-01-08 19:00:00 5.5 3 Noroeste 12 Noroeste 0 857.2 -0.1 77
2020-01-08 18:00:00 6.9 3 Oeste 12 Sudoeste 0 857.1 -0.3 69
2020-01-08 17:00:00 7.9 4 Noroeste 8 Norte 0 857.2 -0.6 67
2020-01-08 16:00:00 7.9 6 Noroeste 16 Oeste 0 857.3 -1.1 63
2020-01-08 15:00:00 10.5 4 Oeste 14 Noroeste 0 857.4 -1.7 60
2020-01-08 14:00:00 11 6 Norte 14 Sudoeste 0 857.8 -1.4 53
2020-01-08 13:00:00 12.2 4 Sudeste 10 Sudeste 0 858.4 -0.7 49
2020-01-08 12:00:00 11.3 7 Sudeste 10 Sudeste 0 859.1 0.3 41
2020-01-08 11:00:00 9 5 Sudeste 10 Sudeste 0 859.2 0.3 42
2020-01-08 10:00:00 7.4 4 Sur 5 Sudeste 0 859.1 0.3 48
2020-01-08 09:00:00 5.5 5 Sudeste 9 Sudeste 0 858.8 0 52
2020-01-08 08:00:00 4.8 6 Noroeste 14 Noroeste 0 858.9 0 67
2020-01-08 07:00:00 5.2 8 Noroeste 14 Noroeste 0 858.8 -0.5 39
2020-01-08 06:00:00 5.2 7 Noroeste 11 Noroeste 0 858.8 -0.6 53
2020-01-08 05:00:00 6.3 4 Sudeste 9 Sudeste 0 858.9 -0.6 45
2020-01-08 04:00:00 5.6 2 Noroeste 7 Oeste 0 859.3 -0.3 39
2020-01-08 03:00:00 5 4 Noroeste 13 Noroeste 0 859.4 -0.4 46
2020-01-08 02:00:00 5.5 8 Noroeste 13 Noroeste 0 859.5 -0.6 50
2020-01-08 01:00:00 6.6 3 Sudeste 8 Sudeste 0 859.6 -0.5 40
2020-01-08 00:00:00 6.4 3 Sudeste 5 Sudeste 0 859.8 -0.3 37
2020-01-07 23:00:00 5.9 0 Calma 9 Noroeste 0 860.1 0.1 45
2020-01-07 22:00:00 5 0 Calma 5 Este 0 860.1 0.4 50
2020-01-07 21:00:00 5.3 0 Calma 16 Noroeste 0 860.1 0.6 40
2020-01-07 20:00:00 5.8 10 Noroeste 16 Norte 0 860 0.6 36
2020-01-07 19:00:00 5.5 3 Noroeste 6 Noroeste 0 859.7 0.4 43
2020-01-07 18:00:00 6.9 6 Noroeste 10 Noroeste 0 859.5 0.1 32
2020-01-07 17:00:00 7.2 4 Sudoeste 14 Oeste 0 859.4 -0.4 32
2020-01-07 16:00:00 7.8 10 Oeste 15 Noroeste 0 859.3 -1.1 31
2020-01-07 15:00:00 10.2 10 Noroeste 13 Noroeste 0 859.4 -1.3 27
2020-01-07 14:00:00 11.4 8 Noroeste 12 Noroeste 0 859.8 -0.7 23
2020-01-07 13:00:00 11.3 6 Noroeste 9 Noroeste 0 860.4 0.2 19
2020-01-07 12:00:00 10.7 3 Noroeste 7 Sudeste 0 860.7 1 23
2020-01-07 11:00:00 8.4 0 Calma 6 Sudeste 0 860.5 1 29
2020-01-07 10:00:00 5.3 4 Sudeste 8 Sur 0 860.2 1 30
2020-01-07 09:00:00 3.8 6 Sudeste 9 Sudeste 0 859.7 0.3 29
2020-01-07 08:00:00 4.1 7 Sudeste 10 Sur 0 859.5 -0.1 27
2020-01-07 07:00:00 4.1 7 Sudeste 12 Sur 0 859.2 -0.3 27
2020-01-07 06:00:00 4.1 6 Sudeste 10 Sur 0 859.4 0.3 28
2020-01-07 05:00:00 4.3 6 Sur 11 Sur 0 859.6 0.5 26
2020-01-07 04:00:00 3.5 8 Sudeste 12 Sudeste 0 859.5 0.2 28
2020-01-07 03:00:00 3.7 9 Sudeste 16 Sur 0 859.1 0 28
2020-01-07 02:00:00 5.4 9 Sur 14 Sur 0 859.1 0.3 24
2020-01-07 01:00:00 2.7 5 Sur 11 Sudeste 0 859.3 0.6 30
2020-01-07 00:00:00 2.5 0 Calma 8 Sudeste 0 859.1 0.6 31
2020-01-06 23:00:00 3.2 5 Sudeste 9 Noroeste 0 858.8 0.5 30
2020-01-06 22:00:00 2.5 4 Norte 10 Noroeste 0 858.7 0.5 32
2020-01-06 21:00:00 3.1 10 Noroeste 14 Noroeste 0 858.5 0.8 36
2020-01-06 20:00:00 3.5 7 Noroeste 15 Noroeste 0 858.3 1.1 31
2020-01-06 19:00:00 4.3 10 Noroeste 15 Noroeste 0 858.2 1.9 27
2020-01-06 18:00:00 4.8 10 Noroeste 17 Noroeste 0 857.7 1.5 29
2020-01-06 17:00:00 5.3 6 Noroeste 16 Oeste 0 857.2 1 41
2020-01-06 16:00:00 5.7 8 Oeste 16 Oeste 0 856.3 -0.5 39
2020-01-06 15:00:00 7.6 11 Noroeste 16 Sudeste 0 856.2 -0.9 39
2020-01-06 14:00:00 9.6 8 Sudeste 13 Noroeste 0 856.2 -0.8 29
2020-01-06 13:00:00 8.7 7 Noroeste 15 Noroeste 0 856.8 0.2 36
2020-01-06 12:00:00 9.2 10 Sudeste 13 Sudeste 0 857.1 0.7 34
2020-01-06 11:00:00 8.6 7 Sudeste 15 Sur 0 857 0.9 31
2020-01-06 10:00:00 5.8 6 Sudeste 12 Sudeste 0 856.6 1 36